Logo Frankfurt-Egelsbach Airport
Hessische Flugplatz GmbH Egelsbach
Telefon : +49 (0)6103-9418-0
E-Mail : fly@egelsbach-airport.com
   

 

 

 

 

 

 

Aktuelle Daten

Öffnungszeiten: 0800 LT - SS+30 (max 2100 LT)

PPR: 0700 LT - 0800 LT, SS+30 - 2100 LT Tel +49 6103 9418-0

Behördlich vorgeschriebenes Briefing für NVFR-Anflüge mit HPA
für die Saison 2014/2015

» Behördlich vorgeschriebenes Briefing für NVFR-Anflüge mit HPA für die Saison 2014/2015

 

Webcam

Webcam

Wetterdaten

Beobachtung von : 04-MAR-2015 - 00:00 UTC
Sonnenaufgang : 06:03 UTC
Sonnenuntergang : 17:12 UTC
Sicht : ausgefallen
Wolkenuntergrenze : nicht feststellbar
Wind : 230 / 4 kt
Wind extrem (10 min) : 220-260 / 4-8 kt
Temperatur : 3.7° Celsius
Taupunkt : 1.1° Celsius
QNH : 1021.1 hPa
Dichtehöhe : -1080 ft

Daten werden automatisch generiert. Verfügbarkeit und Richtigkeit ohne Gewähr.
Mit freundlicher Unterstützung des Deutschen Wetterdienstes

Metar

804
SADL31 EDFE 031720
METAR EDFE 031720Z 21010KT 9999 FEW048 SCT090 09/M02 Q1017=


Notam

Zur Zeit liegen keine NOTAM Meldungen vor.